sensor_id;sensor_type;location;lat;lon;timestamp;temperature;humidity
64705;DHT22;51131;52.298;13.686;2023-02-28T00:01:20;17.00;42.60
64705;DHT22;51131;52.298;13.686;2023-02-28T00:03:47;17.00;42.60
64705;DHT22;51131;52.298;13.686;2023-02-28T00:06:14;17.00;42.70
64705;DHT22;51131;52.298;13.686;2023-02-28T00:08:40;17.00;42.60
64705;DHT22;51131;52.298;13.686;2023-02-28T00:11:08;17.00;42.50
64705;DHT22;51131;52.298;13.686;2023-02-28T00:13:36;17.00;42.60
64705;DHT22;51131;52.298;13.686;2023-02-28T00:16:10;17.00;42.60
64705;DHT22;51131;52.298;13.686;2023-02-28T00:18:37;16.90;42.60
64705;DHT22;51131;52.298;13.686;2023-02-28T00:21:04;16.90;42.50
64705;DHT22;51131;52.298;13.686;2023-02-28T00:23:31;16.90;42.60
64705;DHT22;51131;52.298;13.686;2023-02-28T00:25:58;17.00;42.70
64705;DHT22;51131;52.298;13.686;2023-02-28T00:28:24;17.00;42.80
64705;DHT22;51131;52.298;13.686;2023-02-28T00:30:51;16.90;42.90
64705;DHT22;51131;52.298;13.686;2023-02-28T00:33:18;17.00;42.80
64705;DHT22;51131;52.298;13.686;2023-02-28T00:35:44;16.90;42.90
64705;DHT22;51131;52.298;13.686;2023-02-28T00:38:15;16.90;42.70
64705;DHT22;51131;52.298;13.686;2023-02-28T00:40:42;17.00;42.30
64705;DHT22;51131;52.298;13.686;2023-02-28T00:43:09;17.00;42.20
64705;DHT22;51131;52.298;13.686;2023-02-28T00:45:35;17.00;42.00
64705;DHT22;51131;52.298;13.686;2023-02-28T00:48:02;17.10;42.60
64705;DHT22;51131;52.298;13.686;2023-02-28T00:50:29;17.10;42.00
64705;DHT22;51131;52.298;13.686;2023-02-28T00:52:56;17.10;42.20
64705;DHT22;51131;52.298;13.686;2023-02-28T00:55:22;17.10;42.40
64705;DHT22;51131;52.298;13.686;2023-02-28T00:57:49;17.10;42.30
64705;DHT22;51131;52.298;13.686;2023-02-28T01:00:16;17.10;42.90
64705;DHT22;51131;52.298;13.686;2023-02-28T01:02:42;17.10;42.80
64705;DHT22;51131;52.298;13.686;2023-02-28T01:05:09;17.10;42.50
64705;DHT22;51131;52.298;13.686;2023-02-28T01:07:35;17.10;42.80
64705;DHT22;51131;52.298;13.686;2023-02-28T01:10:02;17.00;42.20
64705;DHT22;51131;52.298;13.686;2023-02-28T01:12:29;17.00;42.30
64705;DHT22;51131;52.298;13.686;2023-02-28T01:14:56;17.00;42.30
64705;DHT22;51131;52.298;13.686;2023-02-28T01:17:23;17.00;42.50
64705;DHT22;51131;52.298;13.686;2023-02-28T01:19:52;17.00;42.10
64705;DHT22;51131;52.298;13.686;2023-02-28T01:22:19;17.00;42.40
64705;DHT22;51131;52.298;13.686;2023-02-28T01:24:45;17.00;43.10
64705;DHT22;51131;52.298;13.686;2023-02-28T01:27:13;17.00;42.50
64705;DHT22;51131;52.298;13.686;2023-02-28T01:29:40;17.00;42.40
64705;DHT22;51131;52.298;13.686;2023-02-28T01:32:07;17.00;42.50
64705;DHT22;51131;52.298;13.686;2023-02-28T01:34:33;17.00;42.80
64705;DHT22;51131;52.298;13.686;2023-02-28T01:37:00;17.00;42.70
64705;DHT22;51131;52.298;13.686;2023-02-28T01:39:27;17.00;42.70
64705;DHT22;51131;52.298;13.686;2023-02-28T01:41:54;17.00;42.70
64705;DHT22;51131;52.298;13.686;2023-02-28T01:47:06;17.00;42.50
64705;DHT22;51131;52.298;13.686;2023-02-28T01:49:32;16.90;42.60
64705;DHT22;51131;52.298;13.686;2023-02-28T01:51:59;17.30;42.90
64705;DHT22;51131;52.298;13.686;2023-02-28T01:54:27;16.90;42.60
64705;DHT22;51131;52.298;13.686;2023-02-28T01:57:03;16.90;42.50
64705;DHT22;51131;52.298;13.686;2023-02-28T01:59:36;16.90;42.60
64705;DHT22;51131;52.298;13.686;2023-02-28T02:02:04;16.90;42.60
64705;DHT22;51131;52.298;13.686;2023-02-28T02:04:38;16.90;42.50
64705;DHT22;51131;52.298;13.686;2023-02-28T02:07:07;16.90;42.70
64705;DHT22;51131;52.298;13.686;2023-02-28T02:09:34;16.90;42.90
64705;DHT22;51131;52.298;13.686;2023-02-28T02:12:02;16.90;42.40
64705;DHT22;51131;52.298;13.686;2023-02-28T02:19:44;16.90;42.70
64705;DHT22;51131;52.298;13.686;2023-02-28T02:25:15;16.90;42.50
64705;DHT22;51131;52.298;13.686;2023-02-28T02:27:57;16.90;42.60
64705;DHT22;51131;52.298;13.686;2023-02-28T02:30:36;16.90;41.90
64705;DHT22;51131;52.298;13.686;2023-02-28T02:36:03;17.00;41.90
64705;DHT22;51131;52.298;13.686;2023-02-28T02:38:32;17.00;41.80
64705;DHT22;51131;52.298;13.686;2023-02-28T02:41:13;17.10;42.00
64705;DHT22;51131;52.298;13.686;2023-02-28T02:43:44;17.00;42.10
64705;DHT22;51131;52.298;13.686;2023-02-28T02:49:30;17.00;42.70
64705;DHT22;51131;52.298;13.686;2023-02-28T02:51:58;17.00;42.50
64705;DHT22;51131;52.298;13.686;2023-02-28T02:54:28;17.00;42.30
64705;DHT22;51131;52.298;13.686;2023-02-28T02:56:57;17.00;42.80
64705;DHT22;51131;52.298;13.686;2023-02-28T02:59:25;17.80;43.20
64705;DHT22;51131;52.298;13.686;2023-02-28T03:01:55;17.00;42.00
64705;DHT22;51131;52.298;13.686;2023-02-28T03:04:23;17.00;42.60
64705;DHT22;51131;52.298;13.686;2023-02-28T03:06:50;16.90;42.00
64705;DHT22;51131;52.298;13.686;2023-02-28T03:09:21;16.90;42.30
64705;DHT22;51131;52.298;13.686;2023-02-28T03:11:48;17.00;41.90
64705;DHT22;51131;52.298;13.686;2023-02-28T03:14:25;17.60;42.40
64705;DHT22;51131;52.298;13.686;2023-02-28T03:17:08;16.90;41.80
64705;DHT22;51131;52.298;13.686;2023-02-28T03:24:57;16.90;41.90
64705;DHT22;51131;52.298;13.686;2023-02-28T03:27:30;16.90;42.10
64705;DHT22;51131;52.298;13.686;2023-02-28T03:32:27;16.90;41.90
64705;DHT22;51131;52.298;13.686;2023-02-28T03:34:59;16.90;42.00
64705;DHT22;51131;52.298;13.686;2023-02-28T03:37:27;16.90;42.00
64705;DHT22;51131;52.298;13.686;2023-02-28T03:40:00;17.60;42.50
64705;DHT22;51131;52.298;13.686;2023-02-28T03:42:28;16.90;42.40
64705;DHT22;51131;52.298;13.686;2023-02-28T03:44:57;16.90;41.80
64705;DHT22;51131;52.298;13.686;2023-02-28T03:47:35;16.90;42.00
64705;DHT22;51131;52.298;13.686;2023-02-28T03:50:10;16.90;42.20
64705;DHT22;51131;52.298;13.686;2023-02-28T03:52:41;16.90;41.70
64705;DHT22;51131;52.298;13.686;2023-02-28T03:55:12;16.90;42.30
64705;DHT22;51131;52.298;13.686;2023-02-28T04:00:27;16.90;41.80
64705;DHT22;51131;52.298;13.686;2023-02-28T04:02:54;16.90;41.90
64705;DHT22;51131;52.298;13.686;2023-02-28T04:05:21;16.90;41.90
64705;DHT22;51131;52.298;13.686;2023-02-28T04:07:48;16.90;42.00
64705;DHT22;51131;52.298;13.686;2023-02-28T04:10:15;16.80;42.00
64705;DHT22;51131;52.298;13.686;2023-02-28T04:12:42;16.80;42.10
64705;DHT22;51131;52.298;13.686;2023-02-28T04:15:09;16.80;41.60
64705;DHT22;51131;52.298;13.686;2023-02-28T04:17:36;16.80;41.90
64705;DHT22;51131;52.298;13.686;2023-02-28T04:20:03;16.80;42.20
64705;DHT22;51131;52.298;13.686;2023-02-28T04:22:35;16.80;41.70
64705;DHT22;51131;52.298;13.686;2023-02-28T04:25:03;16.80;41.70
64705;DHT22;51131;52.298;13.686;2023-02-28T04:27:29;16.80;41.60
64705;DHT22;51131;52.298;13.686;2023-02-28T04:29:58;17.00;41.80
64705;DHT22;51131;52.298;13.686;2023-02-28T04:32:24;16.90;41.70
64705;DHT22;51131;52.298;13.686;2023-02-28T04:34:51;17.00;41.30
64705;DHT22;51131;52.298;13.686;2023-02-28T04:37:18;17.00;41.30
64705;DHT22;51131;52.298;13.686;2023-02-28T04:39:44;17.00;41.10
64705;DHT22;51131;52.298;13.686;2023-02-28T04:42:11;17.00;41.40
64705;DHT22;51131;52.298;13.686;2023-02-28T04:44:38;17.00;41.40
64705;DHT22;51131;52.298;13.686;2023-02-28T04:47:05;17.00;41.70
64705;DHT22;51131;52.298;13.686;2023-02-28T04:49:31;17.00;41.50
64705;DHT22;51131;52.298;13.686;2023-02-28T04:51:58;17.00;41.50
64705;DHT22;51131;52.298;13.686;2023-02-28T04:54:24;17.50;42.10
64705;DHT22;51131;52.298;13.686;2023-02-28T04:56:51;16.90;41.90
64705;DHT22;51131;52.298;13.686;2023-02-28T04:59:18;16.90;41.30
64705;DHT22;51131;52.298;13.686;2023-02-28T05:01:48;16.90;41.40
64705;DHT22;51131;52.298;13.686;2023-02-28T05:04:15;16.90;41.80
64705;DHT22;51131;52.298;13.686;2023-02-28T05:06:41;16.90;41.20
64705;DHT22;51131;52.298;13.686;2023-02-28T05:09:08;16.90;41.30
64705;DHT22;51131;52.298;13.686;2023-02-28T05:11:38;16.90;41.40
64705;DHT22;51131;52.298;13.686;2023-02-28T05:14:14;16.90;41.40
64705;DHT22;51131;52.298;13.686;2023-02-28T05:16:41;16.90;41.70
64705;DHT22;51131;52.298;13.686;2023-02-28T05:19:08;16.90;41.50
64705;DHT22;51131;52.298;13.686;2023-02-28T05:21:36;16.90;41.40
64705;DHT22;51131;52.298;13.686;2023-02-28T05:24:05;17.40;41.90
64705;DHT22;51131;52.298;13.686;2023-02-28T05:26:34;16.90;41.50
64705;DHT22;51131;52.298;13.686;2023-02-28T05:29:00;16.90;41.50
64705;DHT22;51131;52.298;13.686;2023-02-28T05:31:27;16.90;41.40
64705;DHT22;51131;52.298;13.686;2023-02-28T05:33:54;16.90;41.70
64705;DHT22;51131;52.298;13.686;2023-02-28T05:36:21;16.90;41.50
64705;DHT22;51131;52.298;13.686;2023-02-28T05:38:48;16.80;41.80
64705;DHT22;51131;52.298;13.686;2023-02-28T05:41:16;16.80;41.60
64705;DHT22;51131;52.298;13.686;2023-02-28T05:43:42;16.80;41.40
64705;DHT22;51131;52.298;13.686;2023-02-28T05:46:10;16.80;41.70
64705;DHT22;51131;52.298;13.686;2023-02-28T05:48:37;17.00;41.30
64705;DHT22;51131;52.298;13.686;2023-02-28T05:51:04;16.80;41.20
64705;DHT22;51131;52.298;13.686;2023-02-28T05:53:31;16.80;41.40
64705;DHT22;51131;52.298;13.686;2023-02-28T05:55:58;16.80;41.30
64705;DHT22;51131;52.298;13.686;2023-02-28T05:58:25;16.80;41.50
64705;DHT22;51131;52.298;13.686;2023-02-28T06:00:55;16.80;41.60
64705;DHT22;51131;52.298;13.686;2023-02-28T06:03:22;16.80;41.50
64705;DHT22;51131;52.298;13.686;2023-02-28T06:05:48;16.90;41.60
64705;DHT22;51131;52.298;13.686;2023-02-28T06:08:15;16.90;41.50
64705;DHT22;51131;52.298;13.686;2023-02-28T06:10:41;17.70;42.00
64705;DHT22;51131;52.298;13.686;2023-02-28T06:13:08;17.00;41.30
64705;DHT22;51131;52.298;13.686;2023-02-28T06:15:35;17.00;41.50
64705;DHT22;51131;52.298;13.686;2023-02-28T06:18:01;17.00;41.30
64705;DHT22;51131;52.298;13.686;2023-02-28T06:20:28;17.00;41.30
64705;DHT22;51131;52.298;13.686;2023-02-28T06:22:56;17.00;40.70
64705;DHT22;51131;52.298;13.686;2023-02-28T06:25:25;17.30;41.50
64705;DHT22;51131;52.298;13.686;2023-02-28T06:27:52;17.80;41.80
64705;DHT22;51131;52.298;13.686;2023-02-28T06:30:20;17.00;41.50
64705;DHT22;51131;52.298;13.686;2023-02-28T06:32:51;17.00;41.80
64705;DHT22;51131;52.298;13.686;2023-02-28T06:35:18;17.00;41.80
64705;DHT22;51131;52.298;13.686;2023-02-28T06:37:45;17.00;41.30
64705;DHT22;51131;52.298;13.686;2023-02-28T06:40:13;17.10;41.40
64705;DHT22;51131;52.298;13.686;2023-02-28T06:42:40;17.50;42.70
64705;DHT22;51131;52.298;13.686;2023-02-28T06:45:06;17.10;41.40
64705;DHT22;51131;52.298;13.686;2023-02-28T06:47:39;17.10;41.80
64705;DHT22;51131;52.298;13.686;2023-02-28T06:50:07;17.10;41.90
64705;DHT22;51131;52.298;13.686;2023-02-28T06:52:34;17.10;41.40
64705;DHT22;51131;52.298;13.686;2023-02-28T06:55:06;17.30;42.10
64705;DHT22;51131;52.298;13.686;2023-02-28T06:57:34;17.10;41.70
64705;DHT22;51131;52.298;13.686;2023-02-28T07:00:03;17.10;41.60
64705;DHT22;51131;52.298;13.686;2023-02-28T07:02:30;17.10;41.90
64705;DHT22;51131;52.298;13.686;2023-02-28T07:04:57;17.10;42.20
64705;DHT22;51131;52.298;13.686;2023-02-28T07:07:24;17.00;41.80
64705;DHT22;51131;52.298;13.686;2023-02-28T07:09:51;17.00;42.10
64705;DHT22;51131;52.298;13.686;2023-02-28T07:12:17;17.50;42.60
64705;DHT22;51131;52.298;13.686;2023-02-28T07:14:44;17.00;41.90
64705;DHT22;51131;52.298;13.686;2023-02-28T07:17:10;17.00;42.20
64705;DHT22;51131;52.298;13.686;2023-02-28T07:19:38;17.00;42.00
64705;DHT22;51131;52.298;13.686;2023-02-28T07:22:06;17.50;42.30
64705;DHT22;51131;52.298;13.686;2023-02-28T07:24:32;17.00;42.30
64705;DHT22;51131;52.298;13.686;2023-02-28T07:26:59;17.00;42.00
64705;DHT22;51131;52.298;13.686;2023-02-28T07:29:27;17.00;41.90
64705;DHT22;51131;52.298;13.686;2023-02-28T07:31:53;17.20;42.70
64705;DHT22;51131;52.298;13.686;2023-02-28T07:34:20;17.00;42.40
64705;DHT22;51131;52.298;13.686;2023-02-28T07:36:47;17.00;42.00
64705;DHT22;51131;52.298;13.686;2023-02-28T07:39:14;17.00;42.30
64705;DHT22;51131;52.298;13.686;2023-02-28T07:41:40;17.00;42.70
64705;DHT22;51131;52.298;13.686;2023-02-28T07:44:10;17.00;42.60
64705;DHT22;51131;52.298;13.686;2023-02-28T07:46:37;17.00;41.80
64705;DHT22;51131;52.298;13.686;2023-02-28T07:49:04;16.70;41.90
64705;DHT22;51131;52.298;13.686;2023-02-28T07:51:31;17.10;42.20
64705;DHT22;51131;52.298;13.686;2023-02-28T07:53:58;17.10;41.70
64705;DHT22;51131;52.298;13.686;2023-02-28T07:56:24;17.10;41.90
64705;DHT22;51131;52.298;13.686;2023-02-28T07:58:51;17.20;42.10
64705;DHT22;51131;52.298;13.686;2023-02-28T08:01:17;17.10;42.00
64705;DHT22;51131;52.298;13.686;2023-02-28T08:03:45;17.10;41.50
64705;DHT22;51131;52.298;13.686;2023-02-28T08:06:19;17.20;41.80
64705;DHT22;51131;52.298;13.686;2023-02-28T08:08:46;17.10;41.40
64705;DHT22;51131;52.298;13.686;2023-02-28T08:11:13;17.00;41.30
64705;DHT22;51131;52.298;13.686;2023-02-28T08:13:39;17.00;41.50
64705;DHT22;51131;52.298;13.686;2023-02-28T08:16:06;17.00;41.50
64705;DHT22;51131;52.298;13.686;2023-02-28T08:18:33;17.00;41.50
64705;DHT22;51131;52.298;13.686;2023-02-28T08:21:04;17.00;41.30
64705;DHT22;51131;52.298;13.686;2023-02-28T08:23:31;17.00;41.50
64705;DHT22;51131;52.298;13.686;2023-02-28T08:25:59;17.00;41.90
64705;DHT22;51131;52.298;13.686;2023-02-28T08:28:26;17.10;41.50
64705;DHT22;51131;52.298;13.686;2023-02-28T08:30:53;16.90;41.80
64705;DHT22;51131;52.298;13.686;2023-02-28T08:33:20;17.00;42.20
64705;DHT22;51131;52.298;13.686;2023-02-28T08:35:47;17.00;42.00
64705;DHT22;51131;52.298;13.686;2023-02-28T08:38:14;17.00;41.80
64705;DHT22;51131;52.298;13.686;2023-02-28T08:40:41;16.90;41.30
64705;DHT22;51131;52.298;13.686;2023-02-28T08:43:07;17.00;42.10
64705;DHT22;51131;52.298;13.686;2023-02-28T08:45:34;16.90;41.70
64705;DHT22;51131;52.298;13.686;2023-02-28T08:48:00;17.00;41.70
64705;DHT22;51131;52.298;13.686;2023-02-28T08:50:27;16.90;41.40
64705;DHT22;51131;52.298;13.686;2023-02-28T08:52:53;16.90;42.40
64705;DHT22;51131;52.298;13.686;2023-02-28T08:55:20;16.90;42.30
64705;DHT22;51131;52.298;13.686;2023-02-28T08:57:47;16.90;42.30
64705;DHT22;51131;52.298;13.686;2023-02-28T09:00:13;16.90;42.10
64705;DHT22;51131;52.298;13.686;2023-02-28T09:02:40;16.90;41.90
64705;DHT22;51131;52.298;13.686;2023-02-28T09:05:09;16.90;41.60
64705;DHT22;51131;52.298;13.686;2023-02-28T09:07:35;16.90;41.80
64705;DHT22;51131;52.298;13.686;2023-02-28T09:10:02;16.90;41.50
64705;DHT22;51131;52.298;13.686;2023-02-28T09:12:31;16.80;41.00
64705;DHT22;51131;52.298;13.686;2023-02-28T09:14:58;16.80;40.40
64705;DHT22;51131;52.298;13.686;2023-02-28T09:17:25;16.80;41.10
64705;DHT22;51131;52.298;13.686;2023-02-28T09:19:56;16.80;40.80
64705;DHT22;51131;52.298;13.686;2023-02-28T09:22:23;16.80;40.50
64705;DHT22;51131;52.298;13.686;2023-02-28T09:24:50;16.80;40.70
64705;DHT22;51131;52.298;13.686;2023-02-28T09:27:16;16.80;41.10
64705;DHT22;51131;52.298;13.686;2023-02-28T09:29:43;16.80;40.50
64705;DHT22;51131;52.298;13.686;2023-02-28T09:32:09;16.70;40.30
64705;DHT22;51131;52.298;13.686;2023-02-28T09:34:36;16.80;40.00
64705;DHT22;51131;52.298;13.686;2023-02-28T09:37:03;16.70;40.40
64705;DHT22;51131;52.298;13.686;2023-02-28T09:39:30;16.80;40.40
64705;DHT22;51131;52.298;13.686;2023-02-28T09:41:57;16.80;40.30
64705;DHT22;51131;52.298;13.686;2023-02-28T09:44:41;16.70;40.30
64705;DHT22;51131;52.298;13.686;2023-02-28T09:47:14;16.80;40.40
64705;DHT22;51131;52.298;13.686;2023-02-28T09:49:45;16.80;40.10
64705;DHT22;51131;52.298;13.686;2023-02-28T09:52:20;16.80;40.60
64705;DHT22;51131;52.298;13.686;2023-02-28T09:54:47;16.90;40.30
64705;DHT22;51131;52.298;13.686;2023-02-28T09:57:19;16.90;40.70
64705;DHT22;51131;52.298;13.686;2023-02-28T10:00:00;16.90;41.10
64705;DHT22;51131;52.298;13.686;2023-02-28T10:04:58;16.90;41.00
64705;DHT22;51131;52.298;13.686;2023-02-28T10:07:36;16.90;40.70
64705;DHT22;51131;52.298;13.686;2023-02-28T10:10:14;17.00;40.70
64705;DHT22;51131;52.298;13.686;2023-02-28T10:12:44;16.80;40.10
64705;DHT22;51131;52.298;13.686;2023-02-28T10:15:15;16.80;40.70
64705;DHT22;51131;52.298;13.686;2023-02-28T10:17:43;16.80;40.90
64705;DHT22;51131;52.298;13.686;2023-02-28T10:20:35;16.80;41.20
64705;DHT22;51131;52.298;13.686;2023-02-28T10:23:03;16.80;40.20
64705;DHT22;51131;52.298;13.686;2023-02-28T10:25:34;17.10;41.00
64705;DHT22;51131;52.298;13.686;2023-02-28T10:30:34;16.80;40.60
64705;DHT22;51131;52.298;13.686;2023-02-28T10:33:01;16.80;40.40
64705;DHT22;51131;52.298;13.686;2023-02-28T10:35:28;16.80;41.00
64705;DHT22;51131;52.298;13.686;2023-02-28T10:37:58;16.80;41.30
64705;DHT22;51131;52.298;13.686;2023-02-28T10:40:28;16.80;41.40
64705;DHT22;51131;52.298;13.686;2023-02-28T10:45:25;16.80;40.80
64705;DHT22;51131;52.298;13.686;2023-02-28T10:47:59;16.80;40.20
64705;DHT22;51131;52.298;13.686;2023-02-28T10:52:53;16.80;41.10
64705;DHT22;51131;52.298;13.686;2023-02-28T10:55:22;16.80;40.70
64705;DHT22;51131;52.298;13.686;2023-02-28T10:57:49;16.80;40.70
64705;DHT22;51131;52.298;13.686;2023-02-28T11:00:17;16.80;40.80
64705;DHT22;51131;52.298;13.686;2023-02-28T11:02:45;16.60;40.10
64705;DHT22;51131;52.298;13.686;2023-02-28T11:05:35;16.70;40.10
64705;DHT22;51131;52.298;13.686;2023-02-28T11:08:18;16.70;40.70
64705;DHT22;51131;52.298;13.686;2023-02-28T11:10:53;16.70;39.90
64705;DHT22;51131;52.298;13.686;2023-02-28T11:13:21;16.70;40.20
64705;DHT22;51131;52.298;13.686;2023-02-28T11:15:59;17.00;40.90
64705;DHT22;51131;52.298;13.686;2023-02-28T11:20:53;16.70;40.80
64705;DHT22;51131;52.298;13.686;2023-02-28T11:23:21;16.70;40.00
64705;DHT22;51131;52.298;13.686;2023-02-28T11:25:52;16.70;40.00
64705;DHT22;51131;52.298;13.686;2023-02-28T11:28:28;16.70;39.80
64705;DHT22;51131;52.298;13.686;2023-02-28T11:31:38;16.70;39.90
64705;DHT22;51131;52.298;13.686;2023-02-28T11:33:50;16.80;40.20
64705;DHT22;51131;52.298;13.686;2023-02-28T11:38:47;16.90;39.90
64705;DHT22;51131;52.298;13.686;2023-02-28T11:43:57;16.90;39.80
64705;DHT22;51131;52.298;13.686;2023-02-28T11:49:02;16.90;39.90
64705;DHT22;51131;52.298;13.686;2023-02-28T11:51:34;16.90;40.00
64705;DHT22;51131;52.298;13.686;2023-02-28T11:54:08;16.90;40.30
64705;DHT22;51131;52.298;13.686;2023-02-28T11:56:39;16.90;40.20
64705;DHT22;51131;52.298;13.686;2023-02-28T11:59:13;16.90;40.60
64705;DHT22;51131;52.298;13.686;2023-02-28T12:01:53;16.90;40.60
64705;DHT22;51131;52.298;13.686;2023-02-28T12:04:27;16.90;40.50
64705;DHT22;51131;52.298;13.686;2023-02-28T12:06:57;16.90;40.20
64705;DHT22;51131;52.298;13.686;2023-02-28T12:12:02;16.90;39.80
64705;DHT22;51131;52.298;13.686;2023-02-28T12:18:00;16.90;40.50
64705;DHT22;51131;52.298;13.686;2023-02-28T12:25:15;16.80;40.80
64705;DHT22;51131;52.298;13.686;2023-02-28T12:27:47;16.80;40.40
64705;DHT22;51131;52.298;13.686;2023-02-28T12:30:27;16.80;40.20
64705;DHT22;51131;52.298;13.686;2023-02-28T12:32:56;16.80;40.80
64705;DHT22;51131;52.298;13.686;2023-02-28T12:35:35;16.70;39.70
64705;DHT22;51131;52.298;13.686;2023-02-28T12:40:40;16.80;40.60
64705;DHT22;51131;52.298;13.686;2023-02-28T12:43:09;16.80;39.80
64705;DHT22;51131;52.298;13.686;2023-02-28T12:48:04;16.80;40.20
64705;DHT22;51131;52.298;13.686;2023-02-28T12:50:32;16.70;40.00
64705;DHT22;51131;52.298;13.686;2023-02-28T12:53:00;16.70;40.40
64705;DHT22;51131;52.298;13.686;2023-02-28T12:58:05;16.70;40.00
64705;DHT22;51131;52.298;13.686;2023-02-28T13:00:38;16.80;40.80
64705;DHT22;51131;52.298;13.686;2023-02-28T13:11:05;17.00;40.70
64705;DHT22;51131;52.298;13.686;2023-02-28T13:13:45;17.00;40.30
64705;DHT22;51131;52.298;13.686;2023-02-28T13:16:11;17.00;39.70
64705;DHT22;51131;52.298;13.686;2023-02-28T13:18:45;17.10;39.60
64705;DHT22;51131;52.298;13.686;2023-02-28T13:28:58;17.00;40.10
64705;DHT22;51131;52.298;13.686;2023-02-28T13:31:25;17.00;40.10
64705;DHT22;51131;52.298;13.686;2023-02-28T13:38:54;17.00;39.80
64705;DHT22;51131;52.298;13.686;2023-02-28T13:46:25;16.90;40.00
64705;DHT22;51131;52.298;13.686;2023-02-28T13:48:51;16.90;40.60
64705;DHT22;51131;52.298;13.686;2023-02-28T13:51:30;16.90;40.60
64705;DHT22;51131;52.298;13.686;2023-02-28T13:54:07;16.90;40.50
64705;DHT22;51131;52.298;13.686;2023-02-28T13:56:49;16.90;40.00
64705;DHT22;51131;52.298;13.686;2023-02-28T13:59:27;16.90;40.10
64705;DHT22;51131;52.298;13.686;2023-02-28T14:02:13;16.80;39.60
64705;DHT22;51131;52.298;13.686;2023-02-28T14:04:53;16.80;39.20
64705;DHT22;51131;52.298;13.686;2023-02-28T14:07:30;16.80;40.30
64705;DHT22;51131;52.298;13.686;2023-02-28T14:10:03;16.80;40.70
64705;DHT22;51131;52.298;13.686;2023-02-28T14:15:28;16.80;40.00
64705;DHT22;51131;52.298;13.686;2023-02-28T14:17:56;16.80;39.40
64705;DHT22;51131;52.298;13.686;2023-02-28T14:20:26;16.80;39.50
64705;DHT22;51131;52.298;13.686;2023-02-28T14:23:06;16.80;39.90
64705;DHT22;51131;52.298;13.686;2023-02-28T14:25:38;16.80;40.60
64705;DHT22;51131;52.298;13.686;2023-02-28T14:30:40;16.80;40.20
64705;DHT22;51131;52.298;13.686;2023-02-28T14:33:14;16.80;40.10
64705;DHT22;51131;52.298;13.686;2023-02-28T14:35:48;16.70;39.80
64705;DHT22;51131;52.298;13.686;2023-02-28T14:38:29;16.80;40.60
64705;DHT22;51131;52.298;13.686;2023-02-28T14:40:58;16.80;40.70
64705;DHT22;51131;52.298;13.686;2023-02-28T14:43:27;16.80;40.00
64705;DHT22;51131;52.298;13.686;2023-02-28T14:45:58;16.80;39.90
64705;DHT22;51131;52.298;13.686;2023-02-28T14:48:25;16.80;40.10
64705;DHT22;51131;52.298;13.686;2023-02-28T14:50:59;16.80;39.70
64705;DHT22;51131;52.298;13.686;2023-02-28T14:53:30;16.80;40.30
64705;DHT22;51131;52.298;13.686;2023-02-28T14:55:57;16.80;40.80
64705;DHT22;51131;52.298;13.686;2023-02-28T14:58:25;16.90;40.70
64705;DHT22;51131;52.298;13.686;2023-02-28T15:00:52;16.90;40.70
64705;DHT22;51131;52.298;13.686;2023-02-28T15:03:24;17.00;40.30
64705;DHT22;51131;52.298;13.686;2023-02-28T15:05:52;17.00;40.10
64705;DHT22;51131;52.298;13.686;2023-02-28T15:08:19;17.10;40.50
64705;DHT22;51131;52.298;13.686;2023-02-28T15:10:56;17.10;40.20
64705;DHT22;51131;52.298;13.686;2023-02-28T15:13:26;17.00;39.90
64705;DHT22;51131;52.298;13.686;2023-02-28T15:15:58;17.00;40.00
64705;DHT22;51131;52.298;13.686;2023-02-28T15:18:30;17.00;40.30
64705;DHT22;51131;52.298;13.686;2023-02-28T15:20:59;17.00;40.30
64705;DHT22;51131;52.298;13.686;2023-02-28T15:23:28;17.60;41.00
64705;DHT22;51131;52.298;13.686;2023-02-28T15:25:55;17.00;40.00
64705;DHT22;51131;52.298;13.686;2023-02-28T15:28:22;17.00;40.30
64705;DHT22;51131;52.298;13.686;2023-02-28T15:30:59;17.10;40.90
64705;DHT22;51131;52.298;13.686;2023-02-28T15:33:27;17.00;40.50
64705;DHT22;51131;52.298;13.686;2023-02-28T15:38:40;16.90;39.80
64705;DHT22;51131;52.298;13.686;2023-02-28T15:41:20;16.90;40.00
64705;DHT22;51131;52.298;13.686;2023-02-28T15:43:47;16.90;40.60
64705;DHT22;51131;52.298;13.686;2023-02-28T15:46:14;17.00;39.90
64705;DHT22;51131;52.298;13.686;2023-02-28T15:48:43;17.00;40.00
64705;DHT22;51131;52.298;13.686;2023-02-28T15:51:17;17.00;40.20
64705;DHT22;51131;52.298;13.686;2023-02-28T15:53:49;17.00;40.30
64705;DHT22;51131;52.298;13.686;2023-02-28T15:56:24;16.90;40.80
64705;DHT22;51131;52.298;13.686;2023-02-28T15:59:02;16.90;40.30
64705;DHT22;51131;52.298;13.686;2023-02-28T16:01:30;16.90;40.50
64705;DHT22;51131;52.298;13.686;2023-02-28T16:04:05;16.90;40.60
64705;DHT22;51131;52.298;13.686;2023-02-28T16:06:38;16.90;40.40
64705;DHT22;51131;52.298;13.686;2023-02-28T16:09:08;16.90;40.40
64705;DHT22;51131;52.298;13.686;2023-02-28T16:11:37;16.90;40.90
64705;DHT22;51131;52.298;13.686;2023-02-28T16:14:05;16.90;40.50
64705;DHT22;51131;52.298;13.686;2023-02-28T16:16:31;16.90;40.50
64705;DHT22;51131;52.298;13.686;2023-02-28T16:18:59;16.90;41.30
64705;DHT22;51131;52.298;13.686;2023-02-28T16:21:25;16.90;40.90
64705;DHT22;51131;52.298;13.686;2023-02-28T16:23:53;16.90;41.10
64705;DHT22;51131;52.298;13.686;2023-02-28T16:26:23;17.60;41.40
64705;DHT22;51131;52.298;13.686;2023-02-28T16:28:50;16.90;41.20
64705;DHT22;51131;52.298;13.686;2023-02-28T16:31:17;18.30;42.70
64705;DHT22;51131;52.298;13.686;2023-02-28T16:33:44;16.90;41.20
64705;DHT22;51131;52.298;13.686;2023-02-28T16:36:15;16.50;41.10
64705;DHT22;51131;52.298;13.686;2023-02-28T16:38:42;16.90;41.80
64705;DHT22;51131;52.298;13.686;2023-02-28T16:41:12;16.90;42.00
64705;DHT22;51131;52.298;13.686;2023-02-28T16:43:43;16.90;41.90
64705;DHT22;51131;52.298;13.686;2023-02-28T16:46:10;17.00;41.50
64705;DHT22;51131;52.298;13.686;2023-02-28T16:48:38;17.10;41.50
64705;DHT22;51131;52.298;13.686;2023-02-28T16:51:13;17.10;41.40
64705;DHT22;51131;52.298;13.686;2023-02-28T16:53:40;17.10;41.20
64705;DHT22;51131;52.298;13.686;2023-02-28T16:56:11;17.10;41.20
64705;DHT22;51131;52.298;13.686;2023-02-28T16:58:40;17.10;41.30
64705;DHT22;51131;52.298;13.686;2023-02-28T17:01:07;17.10;41.40
64705;DHT22;51131;52.298;13.686;2023-02-28T17:03:34;17.10;41.20
64705;DHT22;51131;52.298;13.686;2023-02-28T17:06:03;17.10;41.50
64705;DHT22;51131;52.298;13.686;2023-02-28T17:08:29;17.10;41.90